sensor_id;sensor_type;location;lat;lon;timestamp;P1;durP1;ratioP1;P2;durP2;ratioP2
73172;SDS011;61388;54.962;73.394;2022-08-21T00:00:33;32.53;;;24.60;;
73172;SDS011;61388;54.962;73.394;2022-08-21T00:03:01;36.22;;;26.63;;
73172;SDS011;61388;54.962;73.394;2022-08-21T00:05:28;34.00;;;22.92;;
73172;SDS011;61388;54.962;73.394;2022-08-21T00:07:54;29.40;;;22.07;;
73172;SDS011;61388;54.962;73.394;2022-08-21T00:10:21;36.42;;;21.27;;
73172;SDS011;61388;54.962;73.394;2022-08-21T00:12:47;30.33;;;20.42;;
73172;SDS011;61388;54.962;73.394;2022-08-21T00:15:17;34.33;;;25.50;;
73172;SDS011;61388;54.962;73.394;2022-08-21T00:17:44;34.13;;;23.27;;
73172;SDS011;61388;54.962;73.394;2022-08-21T00:20:11;31.27;;;22.97;;
73172;SDS011;61388;54.962;73.394;2022-08-21T00:22:37;33.92;;;22.38;;
73172;SDS011;61388;54.962;73.394;2022-08-21T00:25:04;33.13;;;21.73;;
73172;SDS011;61388;54.962;73.394;2022-08-21T00:27:31;30.15;;;21.23;;
73172;SDS011;61388;54.962;73.394;2022-08-21T00:29:58;32.28;;;22.63;;
73172;SDS011;61388;54.962;73.394;2022-08-21T00:32:24;29.97;;;21.13;;
73172;SDS011;61388;54.962;73.394;2022-08-21T00:34:51;32.17;;;20.00;;
73172;SDS011;61388;54.962;73.394;2022-08-21T00:37:17;29.42;;;21.48;;
73172;SDS011;61388;54.962;73.394;2022-08-21T00:39:44;32.88;;;21.65;;
73172;SDS011;61388;54.962;73.394;2022-08-21T00:42:11;31.67;;;24.85;;
73172;SDS011;61388;54.962;73.394;2022-08-21T00:44:42;32.10;;;21.83;;
73172;SDS011;61388;54.962;73.394;2022-08-21T00:47:08;29.13;;;21.63;;
73172;SDS011;61388;54.962;73.394;2022-08-21T00:49:39;30.77;;;25.85;;
73172;SDS011;61388;54.962;73.394;2022-08-21T00:52:07;24.70;;;22.15;;
73172;SDS011;61388;54.962;73.394;2022-08-21T00:54:34;34.22;;;27.17;;
73172;SDS011;61388;54.962;73.394;2022-08-21T00:57:03;27.80;;;24.83;;
73172;SDS011;61388;54.962;73.394;2022-08-21T00:59:32;30.08;;;26.92;;
73172;SDS011;61388;54.962;73.394;2022-08-21T01:02:00;36.35;;;29.55;;
73172;SDS011;61388;54.962;73.394;2022-08-21T01:04:26;37.72;;;34.08;;
73172;SDS011;61388;54.962;73.394;2022-08-21T01:06:52;30.83;;;27.52;;
73172;SDS011;61388;54.962;73.394;2022-08-21T01:09:20;28.17;;;25.07;;
73172;SDS011;61388;54.962;73.394;2022-08-21T01:11:46;28.55;;;25.73;;
73172;SDS011;61388;54.962;73.394;2022-08-21T01:14:22;31.73;;;25.20;;
73172;SDS011;61388;54.962;73.394;2022-08-21T01:16:50;37.95;;;34.33;;
73172;SDS011;61388;54.962;73.394;2022-08-21T01:19:17;31.02;;;27.83;;
73172;SDS011;61388;54.962;73.394;2022-08-21T01:21:44;38.67;;;35.27;;
73172;SDS011;61388;54.962;73.394;2022-08-21T01:24:11;34.95;;;31.65;;
73172;SDS011;61388;54.962;73.394;2022-08-21T01:26:42;36.50;;;32.92;;
73172;SDS011;61388;54.962;73.394;2022-08-21T01:29:11;37.90;;;32.20;;
73172;SDS011;61388;54.962;73.394;2022-08-21T01:31:39;32.58;;;27.55;;
73172;SDS011;61388;54.962;73.394;2022-08-21T01:34:15;28.97;;;25.93;;
73172;SDS011;61388;54.962;73.394;2022-08-21T01:36:42;29.15;;;25.77;;
73172;SDS011;61388;54.962;73.394;2022-08-21T01:39:08;27.52;;;24.77;;
73172;SDS011;61388;54.962;73.394;2022-08-21T01:41:41;32.63;;;29.38;;
73172;SDS011;61388;54.962;73.394;2022-08-21T01:44:07;28.92;;;26.10;;
73172;SDS011;61388;54.962;73.394;2022-08-21T01:46:35;31.50;;;28.60;;
73172;SDS011;61388;54.962;73.394;2022-08-21T01:49:02;27.88;;;25.23;;
73172;SDS011;61388;54.962;73.394;2022-08-21T01:51:28;30.70;;;28.13;;
73172;SDS011;61388;54.962;73.394;2022-08-21T01:53:55;27.88;;;25.40;;
73172;SDS011;61388;54.962;73.394;2022-08-21T01:56:21;26.85;;;24.40;;
73172;SDS011;61388;54.962;73.394;2022-08-21T01:58:48;33.33;;;30.43;;
73172;SDS011;61388;54.962;73.394;2022-08-21T02:01:14;24.75;;;22.23;;
73172;SDS011;61388;54.962;73.394;2022-08-21T02:03:41;26.60;;;24.10;;
73172;SDS011;61388;54.962;73.394;2022-08-21T02:06:10;25.83;;;23.02;;
73172;SDS011;61388;54.962;73.394;2022-08-21T02:08:37;23.45;;;21.30;;
73172;SDS011;61388;54.962;73.394;2022-08-21T02:11:03;24.37;;;22.10;;
73172;SDS011;61388;54.962;73.394;2022-08-21T02:13:29;32.45;;;23.23;;
73172;SDS011;61388;54.962;73.394;2022-08-21T02:15:55;23.98;;;21.15;;
73172;SDS011;61388;54.962;73.394;2022-08-21T02:18:22;21.95;;;19.67;;
73172;SDS011;61388;54.962;73.394;2022-08-21T02:20:49;30.00;;;26.88;;
73172;SDS011;61388;54.962;73.394;2022-08-21T02:23:25;21.95;;;19.85;;
73172;SDS011;61388;54.962;73.394;2022-08-21T02:25:52;21.48;;;18.95;;
73172;SDS011;61388;54.962;73.394;2022-08-21T02:28:18;25.00;;;21.30;;
73172;SDS011;61388;54.962;73.394;2022-08-21T02:30:47;23.05;;;20.85;;
73172;SDS011;61388;54.962;73.394;2022-08-21T02:33:18;25.77;;;23.20;;
73172;SDS011;61388;54.962;73.394;2022-08-21T02:35:51;22.40;;;20.20;;
73172;SDS011;61388;54.962;73.394;2022-08-21T02:38:18;22.58;;;20.20;;
73172;SDS011;61388;54.962;73.394;2022-08-21T02:40:46;23.42;;;18.67;;
73172;SDS011;61388;54.962;73.394;2022-08-21T02:43:12;25.17;;;22.67;;
73172;SDS011;61388;54.962;73.394;2022-08-21T02:45:39;23.50;;;21.13;;
73172;SDS011;61388;54.962;73.394;2022-08-21T02:48:07;21.05;;;18.70;;
73172;SDS011;61388;54.962;73.394;2022-08-21T02:50:39;22.52;;;20.13;;
73172;SDS011;61388;54.962;73.394;2022-08-21T02:53:14;24.20;;;18.85;;
73172;SDS011;61388;54.962;73.394;2022-08-21T02:55:43;17.88;;;15.50;;
73172;SDS011;61388;54.962;73.394;2022-08-21T02:58:09;19.23;;;15.77;;
73172;SDS011;61388;54.962;73.394;2022-08-21T03:00:36;21.05;;;17.55;;
73172;SDS011;61388;54.962;73.394;2022-08-21T03:03:13;22.45;;;20.05;;
73172;SDS011;61388;54.962;73.394;2022-08-21T03:05:42;29.80;;;26.95;;
73172;SDS011;61388;54.962;73.394;2022-08-21T03:08:19;20.40;;;18.10;;
73172;SDS011;61388;54.962;73.394;2022-08-21T03:10:47;26.98;;;19.25;;
73172;SDS011;61388;54.962;73.394;2022-08-21T03:13:13;27.38;;;24.45;;
73172;SDS011;61388;54.962;73.394;2022-08-21T03:15:40;25.27;;;22.38;;
73172;SDS011;61388;54.962;73.394;2022-08-21T03:18:07;26.33;;;22.05;;
73172;SDS011;61388;54.962;73.394;2022-08-21T03:20:34;29.15;;;22.50;;
73172;SDS011;61388;54.962;73.394;2022-08-21T03:23:01;27.13;;;20.02;;
73172;SDS011;61388;54.962;73.394;2022-08-21T03:25:35;22.60;;;20.23;;
73172;SDS011;61388;54.962;73.394;2022-08-21T03:28:04;26.17;;;23.15;;
73172;SDS011;61388;54.962;73.394;2022-08-21T03:30:30;22.05;;;19.10;;
73172;SDS011;61388;54.962;73.394;2022-08-21T03:33:06;28.17;;;21.33;;
73172;SDS011;61388;54.962;73.394;2022-08-21T03:35:33;24.45;;;22.23;;
73172;SDS011;61388;54.962;73.394;2022-08-21T03:37:59;28.63;;;22.92;;
73172;SDS011;61388;54.962;73.394;2022-08-21T03:40:25;29.25;;;22.65;;
73172;SDS011;61388;54.962;73.394;2022-08-21T03:42:51;19.85;;;15.93;;
73172;SDS011;61388;54.962;73.394;2022-08-21T03:45:19;22.90;;;18.58;;
73172;SDS011;61388;54.962;73.394;2022-08-21T03:50:31;27.80;;;24.75;;
73172;SDS011;61388;54.962;73.394;2022-08-21T03:52:59;23.63;;;20.50;;
73172;SDS011;61388;54.962;73.394;2022-08-21T03:55:35;34.95;;;29.25;;
73172;SDS011;61388;54.962;73.394;2022-08-21T03:58:02;47.00;;;42.88;;
73172;SDS011;61388;54.962;73.394;2022-08-21T04:00:28;35.35;;;31.80;;
73172;SDS011;61388;54.962;73.394;2022-08-21T04:03:04;40.30;;;36.20;;
73172;SDS011;61388;54.962;73.394;2022-08-21T04:05:30;45.30;;;41.50;;
73172;SDS011;61388;54.962;73.394;2022-08-21T04:08:04;50.75;;;46.33;;
73172;SDS011;61388;54.962;73.394;2022-08-21T04:10:31;56.17;;;51.25;;
73172;SDS011;61388;54.962;73.394;2022-08-21T04:13:05;47.38;;;42.88;;
73172;SDS011;61388;54.962;73.394;2022-08-21T04:15:31;35.25;;;30.95;;
73172;SDS011;61388;54.962;73.394;2022-08-21T04:17:57;27.02;;;19.15;;
73172;SDS011;61388;54.962;73.394;2022-08-21T04:20:24;31.10;;;17.75;;
73172;SDS011;61388;54.962;73.394;2022-08-21T04:23:00;42.00;;;26.25;;
73172;SDS011;61388;54.962;73.394;2022-08-21T04:25:27;35.97;;;25.58;;
73172;SDS011;61388;54.962;73.394;2022-08-21T04:27:53;37.03;;;25.87;;
73172;SDS011;61388;54.962;73.394;2022-08-21T04:30:19;37.55;;;31.67;;
73172;SDS011;61388;54.962;73.394;2022-08-21T04:32:50;30.73;;;27.88;;
73172;SDS011;61388;54.962;73.394;2022-08-21T04:35:18;42.10;;;37.70;;
73172;SDS011;61388;54.962;73.394;2022-08-21T04:37:53;39.70;;;35.75;;
73172;SDS011;61388;54.962;73.394;2022-08-21T04:40:20;43.17;;;34.97;;
73172;SDS011;61388;54.962;73.394;2022-08-21T04:42:53;38.38;;;32.38;;
73172;SDS011;61388;54.962;73.394;2022-08-21T04:45:23;40.70;;;32.75;;
73172;SDS011;61388;54.962;73.394;2022-08-21T04:47:56;37.40;;;32.85;;
73172;SDS011;61388;54.962;73.394;2022-08-21T04:50:30;49.53;;;38.55;;
73172;SDS011;61388;54.962;73.394;2022-08-21T04:53:04;46.20;;;39.70;;
73172;SDS011;61388;54.962;73.394;2022-08-21T04:55:31;45.05;;;33.15;;
73172;SDS011;61388;54.962;73.394;2022-08-21T04:57:57;41.88;;;32.80;;
73172;SDS011;61388;54.962;73.394;2022-08-21T05:00:28;36.88;;;30.63;;
73172;SDS011;61388;54.962;73.394;2022-08-21T05:03:04;40.38;;;34.00;;
73172;SDS011;61388;54.962;73.394;2022-08-21T05:05:32;38.83;;;32.17;;
73172;SDS011;61388;54.962;73.394;2022-08-21T05:08:00;35.10;;;31.20;;
73172;SDS011;61388;54.962;73.394;2022-08-21T05:10:27;35.33;;;31.67;;
73172;SDS011;61388;54.962;73.394;2022-08-21T05:13:05;47.88;;;41.17;;
73172;SDS011;61388;54.962;73.394;2022-08-21T05:15:31;42.25;;;35.83;;
73172;SDS011;61388;54.962;73.394;2022-08-21T05:17:57;39.22;;;34.55;;
73172;SDS011;61388;54.962;73.394;2022-08-21T05:20:24;41.38;;;35.42;;
73172;SDS011;61388;54.962;73.394;2022-08-21T05:22:50;39.38;;;35.17;;
73172;SDS011;61388;54.962;73.394;2022-08-21T05:25:25;41.50;;;37.63;;
73172;SDS011;61388;54.962;73.394;2022-08-21T05:27:51;39.50;;;35.50;;
73172;SDS011;61388;54.962;73.394;2022-08-21T05:30:21;39.63;;;34.20;;
73172;SDS011;61388;54.962;73.394;2022-08-21T05:32:47;36.72;;;32.88;;
73172;SDS011;61388;54.962;73.394;2022-08-21T05:35:22;39.80;;;35.72;;
73172;SDS011;61388;54.962;73.394;2022-08-21T05:37:48;42.20;;;37.47;;
73172;SDS011;61388;54.962;73.394;2022-08-21T05:40:19;50.38;;;45.95;;
73172;SDS011;61388;54.962;73.394;2022-08-21T05:42:45;36.08;;;32.25;;
73172;SDS011;61388;54.962;73.394;2022-08-21T05:45:25;40.03;;;35.47;;
73172;SDS011;61388;54.962;73.394;2022-08-21T05:47:51;36.63;;;31.70;;
73172;SDS011;61388;54.962;73.394;2022-08-21T05:50:18;33.97;;;29.42;;
73172;SDS011;61388;54.962;73.394;2022-08-21T05:52:44;31.70;;;26.90;;
73172;SDS011;61388;54.962;73.394;2022-08-21T05:55:15;33.97;;;30.50;;
73172;SDS011;61388;54.962;73.394;2022-08-21T05:57:41;33.58;;;30.30;;
73172;SDS011;61388;54.962;73.394;2022-08-21T06:00:08;40.70;;;36.47;;
73172;SDS011;61388;54.962;73.394;2022-08-21T06:02:39;40.08;;;34.83;;
73172;SDS011;61388;54.962;73.394;2022-08-21T06:05:05;36.28;;;32.33;;
73172;SDS011;61388;54.962;73.394;2022-08-21T06:07:41;34.83;;;31.30;;
73172;SDS011;61388;54.962;73.394;2022-08-21T06:10:08;32.92;;;29.63;;
73172;SDS011;61388;54.962;73.394;2022-08-21T06:12:34;34.60;;;29.13;;
73172;SDS011;61388;54.962;73.394;2022-08-21T06:15:00;34.22;;;30.83;;
73172;SDS011;61388;54.962;73.394;2022-08-21T06:17:26;26.52;;;22.35;;
73172;SDS011;61388;54.962;73.394;2022-08-21T06:19:53;21.70;;;19.50;;
73172;SDS011;61388;54.962;73.394;2022-08-21T06:22:19;18.15;;;15.95;;
73172;SDS011;61388;54.962;73.394;2022-08-21T06:24:46;23.02;;;19.27;;
73172;SDS011;61388;54.962;73.394;2022-08-21T06:27:12;18.55;;;15.50;;
73172;SDS011;61388;54.962;73.394;2022-08-21T06:29:43;17.92;;;16.05;;
73172;SDS011;61388;54.962;73.394;2022-08-21T06:32:11;15.40;;;13.18;;
73172;SDS011;61388;54.962;73.394;2022-08-21T06:34:38;17.88;;;15.93;;
73172;SDS011;61388;54.962;73.394;2022-08-21T06:37:04;15.57;;;13.20;;
73172;SDS011;61388;54.962;73.394;2022-08-21T06:39:31;23.60;;;21.65;;
73172;SDS011;61388;54.962;73.394;2022-08-21T06:41:57;21.00;;;19.50;;
73172;SDS011;61388;54.962;73.394;2022-08-21T06:44:28;23.20;;;21.27;;
73172;SDS011;61388;54.962;73.394;2022-08-21T06:46:54;21.90;;;20.23;;
73172;SDS011;61388;54.962;73.394;2022-08-21T06:49:20;19.67;;;18.17;;
73172;SDS011;61388;54.962;73.394;2022-08-21T06:51:56;27.85;;;26.00;;
73172;SDS011;61388;54.962;73.394;2022-08-21T06:54:32;28.17;;;26.27;;
73172;SDS011;61388;54.962;73.394;2022-08-21T06:56:58;31.38;;;29.50;;
73172;SDS011;61388;54.962;73.394;2022-08-21T06:59:25;29.20;;;26.98;;
73172;SDS011;61388;54.962;73.394;2022-08-21T07:01:51;36.63;;;34.15;;
73172;SDS011;61388;54.962;73.394;2022-08-21T07:04:17;27.95;;;26.30;;
73172;SDS011;61388;54.962;73.394;2022-08-21T07:06:43;25.23;;;23.60;;
73172;SDS011;61388;54.962;73.394;2022-08-21T07:09:12;26.33;;;24.50;;
73172;SDS011;61388;54.962;73.394;2022-08-21T07:11:39;34.67;;;32.42;;
73172;SDS011;61388;54.962;73.394;2022-08-21T07:14:08;23.77;;;21.98;;
73172;SDS011;61388;54.962;73.394;2022-08-21T07:16:40;17.92;;;16.23;;
73172;SDS011;61388;54.962;73.394;2022-08-21T07:19:06;18.48;;;16.88;;
73172;SDS011;61388;54.962;73.394;2022-08-21T07:21:36;16.10;;;14.60;;
73172;SDS011;61388;54.962;73.394;2022-08-21T07:24:02;12.50;;;11.50;;
73172;SDS011;61388;54.962;73.394;2022-08-21T07:26:35;29.65;;;27.90;;
73172;SDS011;61388;54.962;73.394;2022-08-21T07:29:02;22.08;;;20.48;;
73172;SDS011;61388;54.962;73.394;2022-08-21T07:31:28;27.80;;;25.83;;
73172;SDS011;61388;54.962;73.394;2022-08-21T07:33:55;20.63;;;18.38;;
73172;SDS011;61388;54.962;73.394;2022-08-21T07:36:26;17.42;;;16.23;;
73172;SDS011;61388;54.962;73.394;2022-08-21T07:38:52;22.25;;;20.70;;
73172;SDS011;61388;54.962;73.394;2022-08-21T07:41:20;27.40;;;25.70;;
73172;SDS011;61388;54.962;73.394;2022-08-21T07:43:46;28.73;;;26.52;;
73172;SDS011;61388;54.962;73.394;2022-08-21T07:46:16;28.23;;;26.45;;
73172;SDS011;61388;54.962;73.394;2022-08-21T07:48:42;28.75;;;26.75;;
73172;SDS011;61388;54.962;73.394;2022-08-21T07:51:09;29.73;;;27.80;;
73172;SDS011;61388;54.962;73.394;2022-08-21T07:53:36;26.98;;;24.98;;
73172;SDS011;61388;54.962;73.394;2022-08-21T07:56:03;23.17;;;21.63;;
73172;SDS011;61388;54.962;73.394;2022-08-21T07:58:30;16.17;;;14.98;;
73172;SDS011;61388;54.962;73.394;2022-08-21T08:00:59;20.80;;;19.50;;
73172;SDS011;61388;54.962;73.394;2022-08-21T08:03:26;16.30;;;15.18;;
73172;SDS011;61388;54.962;73.394;2022-08-21T08:05:52;17.45;;;16.17;;
73172;SDS011;61388;54.962;73.394;2022-08-21T08:08:18;34.22;;;32.13;;
73172;SDS011;61388;54.962;73.394;2022-08-21T08:10:45;36.45;;;34.20;;
73172;SDS011;61388;54.962;73.394;2022-08-21T08:13:11;126.97;;;110.53;;
73172;SDS011;61388;54.962;73.394;2022-08-21T08:15:37;28.23;;;26.13;;
73172;SDS011;61388;54.962;73.394;2022-08-21T08:18:09;23.65;;;22.15;;
73172;SDS011;61388;54.962;73.394;2022-08-21T08:20:35;27.98;;;26.38;;
73172;SDS011;61388;54.962;73.394;2022-08-21T08:23:10;55.70;;;52.47;;
73172;SDS011;61388;54.962;73.394;2022-08-21T08:25:36;44.13;;;41.53;;
73172;SDS011;61388;54.962;73.394;2022-08-21T08:28:03;57.17;;;53.67;;
73172;SDS011;61388;54.962;73.394;2022-08-21T08:30:30;40.33;;;37.92;;
73172;SDS011;61388;54.962;73.394;2022-08-21T08:32:56;36.42;;;34.28;;
73172;SDS011;61388;54.962;73.394;2022-08-21T08:35:24;38.33;;;35.95;;
73172;SDS011;61388;54.962;73.394;2022-08-21T08:37:51;81.78;;;75.07;;
73172;SDS011;61388;54.962;73.394;2022-08-21T08:40:33;34.88;;;32.58;;
73172;SDS011;61388;54.962;73.394;2022-08-21T08:43:02;34.78;;;32.67;;
73172;SDS011;61388;54.962;73.394;2022-08-21T08:45:29;29.48;;;27.65;;
73172;SDS011;61388;54.962;73.394;2022-08-21T08:48:05;38.83;;;36.38;;
73172;SDS011;61388;54.962;73.394;2022-08-21T08:50:44;37.80;;;35.50;;
73172;SDS011;61388;54.962;73.394;2022-08-21T08:53:15;30.38;;;28.38;;
73172;SDS011;61388;54.962;73.394;2022-08-21T08:55:53;32.17;;;30.17;;
73172;SDS011;61388;54.962;73.394;2022-08-21T08:58:42;33.58;;;31.20;;
73172;SDS011;61388;54.962;73.394;2022-08-21T09:02:14;41.22;;;38.70;;
73172;SDS011;61388;54.962;73.394;2022-08-21T09:04:41;29.75;;;27.75;;
73172;SDS011;61388;54.962;73.394;2022-08-21T09:12:02;36.53;;;34.17;;
73172;SDS011;61388;54.962;73.394;2022-08-21T09:27:14;28.57;;;26.73;;
73172;SDS011;61388;54.962;73.394;2022-08-21T09:29:45;30.67;;;28.77;;
73172;SDS011;61388;54.962;73.394;2022-08-21T09:32:23;41.67;;;38.97;;
73172;SDS011;61388;54.962;73.394;2022-08-21T09:35:10;40.75;;;38.03;;
73172;SDS011;61388;54.962;73.394;2022-08-21T09:37:54;58.13;;;54.70;;
73172;SDS011;61388;54.962;73.394;2022-08-21T09:40:25;48.88;;;45.72;;
73172;SDS011;61388;54.962;73.394;2022-08-21T09:42:54;47.47;;;44.45;;
73172;SDS011;61388;54.962;73.394;2022-08-21T09:45:31;56.78;;;53.22;;
73172;SDS011;61388;54.962;73.394;2022-08-21T09:48:08;89.70;;;83.95;;
73172;SDS011;61388;54.962;73.394;2022-08-21T09:50:34;52.53;;;48.83;;
73172;SDS011;61388;54.962;73.394;2022-08-21T09:53:00;44.28;;;41.25;;
73172;SDS011;61388;54.962;73.394;2022-08-21T09:55:49;75.90;;;71.38;;
73172;SDS011;61388;54.962;73.394;2022-08-21T09:58:38;90.80;;;85.50;;
73172;SDS011;61388;54.962;73.394;2022-08-21T10:01:05;99.65;;;88.35;;
73172;SDS011;61388;54.962;73.394;2022-08-21T10:03:32;52.15;;;48.83;;
73172;SDS011;61388;54.962;73.394;2022-08-21T10:06:03;64.07;;;60.38;;
73172;SDS011;61388;54.962;73.394;2022-08-21T10:08:31;60.70;;;56.78;;
73172;SDS011;61388;54.962;73.394;2022-08-21T10:11:05;48.70;;;45.72;;
73172;SDS011;61388;54.962;73.394;2022-08-21T10:13:47;47.42;;;44.45;;
73172;SDS011;61388;54.962;73.394;2022-08-21T10:21:45;65.50;;;61.42;;
73172;SDS011;61388;54.962;73.394;2022-08-21T10:24:17;63.63;;;59.90;;
73172;SDS011;61388;54.962;73.394;2022-08-21T10:26:48;87.93;;;82.70;;
73172;SDS011;61388;54.962;73.394;2022-08-21T10:34:29;87.75;;;82.63;;
73172;SDS011;61388;54.962;73.394;2022-08-21T10:39:41;40.45;;;37.15;;
73172;SDS011;61388;54.962;73.394;2022-08-21T10:44:47;34.53;;;31.93;;
73172;SDS011;61388;54.962;73.394;2022-08-21T10:58:14;48.87;;;45.00;;
73172;SDS011;61388;54.962;73.394;2022-08-21T11:00:45;39.30;;;36.60;;
73172;SDS011;61388;54.962;73.394;2022-08-21T11:03:13;70.68;;;66.38;;
73172;SDS011;61388;54.962;73.394;2022-08-21T11:05:50;82.55;;;77.70;;
73172;SDS011;61388;54.962;73.394;2022-08-21T11:08:22;78.38;;;73.68;;
73172;SDS011;61388;54.962;73.394;2022-08-21T11:11:52;83.50;;;78.47;;
73172;SDS011;61388;54.962;73.394;2022-08-21T11:13:47;96.50;;;89.93;;
73172;SDS011;61388;54.962;73.394;2022-08-21T11:16:23;102.55;;;96.05;;
73172;SDS011;61388;54.962;73.394;2022-08-21T11:21:29;46.95;;;43.85;;
73172;SDS011;61388;54.962;73.394;2022-08-21T11:24:03;37.47;;;34.72;;
73172;SDS011;61388;54.962;73.394;2022-08-21T11:26:41;31.55;;;29.02;;
73172;SDS011;61388;54.962;73.394;2022-08-21T11:29:10;30.02;;;27.58;;
73172;SDS011;61388;54.962;73.394;2022-08-21T11:31:47;32.42;;;29.98;;
73172;SDS011;61388;54.962;73.394;2022-08-21T11:34:18;29.30;;;27.17;;
73172;SDS011;61388;54.962;73.394;2022-08-21T11:36:51;29.67;;;27.57;;
73172;SDS011;61388;54.962;73.394;2022-08-21T11:39:25;29.70;;;27.13;;
73172;SDS011;61388;54.962;73.394;2022-08-21T11:45:30;31.88;;;29.60;;
73172;SDS011;61388;54.962;73.394;2022-08-21T11:47:48;22.63;;;20.88;;
73172;SDS011;61388;54.962;73.394;2022-08-21T11:50:18;34.10;;;31.70;;
73172;SDS011;61388;54.962;73.394;2022-08-21T11:55:12;33.10;;;30.50;;
73172;SDS011;61388;54.962;73.394;2022-08-21T12:00:39;34.08;;;31.63;;
73172;SDS011;61388;54.962;73.394;2022-08-21T12:03:24;28.63;;;26.33;;
73172;SDS011;61388;54.962;73.394;2022-08-21T12:05:52;32.38;;;29.83;;
73172;SDS011;61388;54.962;73.394;2022-08-21T12:08:29;31.05;;;28.73;;
73172;SDS011;61388;54.962;73.394;2022-08-21T12:11:09;28.85;;;26.45;;
73172;SDS011;61388;54.962;73.394;2022-08-21T12:13:39;26.42;;;24.17;;
73172;SDS011;61388;54.962;73.394;2022-08-21T12:16:10;26.40;;;23.90;;
73172;SDS011;61388;54.962;73.394;2022-08-21T12:18:37;22.13;;;20.27;;
73172;SDS011;61388;54.962;73.394;2022-08-21T12:21:20;21.15;;;18.77;;
73172;SDS011;61388;54.962;73.394;2022-08-21T12:23:48;20.33;;;18.52;;
73172;SDS011;61388;54.962;73.394;2022-08-21T12:26:20;16.00;;;14.52;;
73172;SDS011;61388;54.962;73.394;2022-08-21T12:28:47;19.80;;;18.03;;
73172;SDS011;61388;54.962;73.394;2022-08-21T12:31:21;17.52;;;15.70;;
73172;SDS011;61388;54.962;73.394;2022-08-21T12:33:51;22.58;;;20.50;;
73172;SDS011;61388;54.962;73.394;2022-08-21T12:36:19;17.70;;;15.80;;
73172;SDS011;61388;54.962;73.394;2022-08-21T12:39:03;19.77;;;17.30;;
73172;SDS011;61388;54.962;73.394;2022-08-21T12:41:58;20.87;;;18.87;;
73172;SDS011;61388;54.962;73.394;2022-08-21T12:44:31;29.27;;;27.13;;
73172;SDS011;61388;54.962;73.394;2022-08-21T12:47:02;14.60;;;12.98;;
73172;SDS011;61388;54.962;73.394;2022-08-21T12:52:16;10.07;;;6.47;;
73172;SDS011;61388;54.962;73.394;2022-08-21T12:54:45;11.67;;;9.90;;
73172;SDS011;61388;54.962;73.394;2022-08-21T12:57:21;9.25;;;8.30;;
73172;SDS011;61388;54.962;73.394;2022-08-21T12:59:55;11.73;;;7.95;;
73172;SDS011;61388;54.962;73.394;2022-08-21T13:02:23;11.52;;;6.75;;
73172;SDS011;61388;54.962;73.394;2022-08-21T13:04:56;11.93;;;9.13;;
73172;SDS011;61388;54.962;73.394;2022-08-21T13:07:27;13.17;;;9.17;;
73172;SDS011;61388;54.962;73.394;2022-08-21T13:10:03;13.18;;;8.77;;
73172;SDS011;61388;54.962;73.394;2022-08-21T13:12:30;11.30;;;6.50;;
73172;SDS011;61388;54.962;73.394;2022-08-21T13:15:00;12.68;;;8.68;;
73172;SDS011;61388;54.962;73.394;2022-08-21T13:17:27;11.55;;;6.90;;
73172;SDS011;61388;54.962;73.394;2022-08-21T13:19:57;15.07;;;7.93;;
73172;SDS011;61388;54.962;73.394;2022-08-21T13:22:24;12.75;;;8.88;;
73172;SDS011;61388;54.962;73.394;2022-08-21T13:24:50;12.95;;;6.22;;
73172;SDS011;61388;54.962;73.394;2022-08-21T13:27:21;10.90;;;6.03;;
73172;SDS011;61388;54.962;73.394;2022-08-21T13:29:47;10.02;;;6.47;;
73172;SDS011;61388;54.962;73.394;2022-08-21T13:32:18;13.07;;;6.40;;
73172;SDS011;61388;54.962;73.394;2022-08-21T13:34:46;10.52;;;6.90;;
73172;SDS011;61388;54.962;73.394;2022-08-21T13:37:13;9.32;;;4.53;;
73172;SDS011;61388;54.962;73.394;2022-08-21T13:39:39;7.43;;;4.82;;
73172;SDS011;61388;54.962;73.394;2022-08-21T13:42:09;9.75;;;4.70;;
73172;SDS011;61388;54.962;73.394;2022-08-21T13:44:41;9.47;;;6.57;;
73172;SDS011;61388;54.962;73.394;2022-08-21T13:47:17;8.55;;;6.13;;
73172;SDS011;61388;54.962;73.394;2022-08-21T13:49:44;12.65;;;9.45;;
73172;SDS011;61388;54.962;73.394;2022-08-21T13:52:16;11.73;;;7.38;;
73172;SDS011;61388;54.962;73.394;2022-08-21T13:54:42;10.95;;;7.57;;
73172;SDS011;61388;54.962;73.394;2022-08-21T13:57:34;14.47;;;7.33;;
73172;SDS011;61388;54.962;73.394;2022-08-21T14:03:00;11.27;;;7.85;;
73172;SDS011;61388;54.962;73.394;2022-08-21T14:05:31;11.73;;;6.53;;
73172;SDS011;61388;54.962;73.394;2022-08-21T14:08:00;11.43;;;7.78;;
73172;SDS011;61388;54.962;73.394;2022-08-21T14:10:28;12.57;;;8.40;;
73172;SDS011;61388;54.962;73.394;2022-08-21T14:13:01;10.25;;;6.05;;
73172;SDS011;61388;54.962;73.394;2022-08-21T14:15:29;12.20;;;6.70;;
73172;SDS011;61388;54.962;73.394;2022-08-21T14:18:15;12.40;;;7.00;;
73172;SDS011;61388;54.962;73.394;2022-08-21T14:20:52;13.77;;;8.00;;
73172;SDS011;61388;54.962;73.394;2022-08-21T14:23:28;10.53;;;5.30;;
73172;SDS011;61388;54.962;73.394;2022-08-21T14:25:54;9.23;;;6.45;;
73172;SDS011;61388;54.962;73.394;2022-08-21T14:30:55;12.68;;;6.78;;
73172;SDS011;61388;54.962;73.394;2022-08-21T14:33:26;10.80;;;6.65;;
73172;SDS011;61388;54.962;73.394;2022-08-21T14:35:58;10.53;;;6.10;;
73172;SDS011;61388;54.962;73.394;2022-08-21T14:38:25;14.65;;;8.00;;
73172;SDS011;61388;54.962;73.394;2022-08-21T14:40:53;13.32;;;6.25;;
73172;SDS011;61388;54.962;73.394;2022-08-21T14:43:20;7.05;;;5.55;;
73172;SDS011;61388;54.962;73.394;2022-08-21T14:45:46;14.57;;;8.43;;
73172;SDS011;61388;54.962;73.394;2022-08-21T14:48:12;9.57;;;5.47;;
73172;SDS011;61388;54.962;73.394;2022-08-21T14:50:39;11.60;;;6.68;;
73172;SDS011;61388;54.962;73.394;2022-08-21T14:53:06;11.63;;;7.03;;
73172;SDS011;61388;54.962;73.394;2022-08-21T14:55:32;14.75;;;8.25;;
73172;SDS011;61388;54.962;73.394;2022-08-21T14:58:21;10.60;;;4.97;;
73172;SDS011;61388;54.962;73.394;2022-08-21T15:00:49;7.63;;;4.93;;
73172;SDS011;61388;54.962;73.394;2022-08-21T15:03:15;11.80;;;6.00;;
73172;SDS011;61388;54.962;73.394;2022-08-21T15:05:41;11.75;;;6.68;;
73172;SDS011;61388;54.962;73.394;2022-08-21T15:08:07;12.85;;;6.53;;
73172;SDS011;61388;54.962;73.394;2022-08-21T15:10:39;14.52;;;7.88;;
73172;SDS011;61388;54.962;73.394;2022-08-21T15:13:06;16.67;;;12.73;;
73172;SDS011;61388;54.962;73.394;2022-08-21T15:15:33;34.45;;;23.95;;
73172;SDS011;61388;54.962;73.394;2022-08-21T15:18:00;36.15;;;32.55;;
73172;SDS011;61388;54.962;73.394;2022-08-21T15:20:26;25.05;;;18.40;;
73172;SDS011;61388;54.962;73.394;2022-08-21T15:22:52;19.30;;;14.18;;
73172;SDS011;61388;54.962;73.394;2022-08-21T15:25:18;19.60;;;17.63;;
73172;SDS011;61388;54.962;73.394;2022-08-21T15:27:44;15.10;;;10.52;;
73172;SDS011;61388;54.962;73.394;2022-08-21T15:30:10;19.45;;;9.60;;
73172;SDS011;61388;54.962;73.394;2022-08-21T15:32:36;24.35;;;11.27;;